Nearby METAR Reports

 

KPDX - Portland, Oregon, USA
Distance from station: NE 9mi, 14km
Updated: Fri, 10-Jul-2020 4:53pm PDT
Few Clouds
Few Clouds
 Wind from NW
Wind: NW 5 mph , 7 km/h
Temperature: 79°F , 26°C
Dew Point: 54°F , 12°C
Humidity: 42%
Barometer: 30.11 inHg , 1019.6 hPa
Clouds: Few Clouds
Visibility: 10 miles , 16 km
Cloud details: Few Clouds 5000 ft
2020/07/10 23:53 KPDX 102353Z 31004KT 10SM FEW050 26/12 A3011 RMK AO2 SLP196 T02610117 10261 20194 58015
KTMK - Tillamook, Oregon, USA
Distance from station: N 9mi, 14km
Updated: Fri, 10-Jul-2020 5:35pm PDT
Clear
Clear
 Wind from NW
Wind: NW 9 mph , 15 km/h
Temperature: 68°F , 20°C
Dew Point: 52°F , 11°C
Humidity: 56%
Barometer: 30.19 inHg , 1022.4 hPa
Clouds: Clear
Visibility: 10 miles , 16 km
2020/07/11 00:35 KTMK 110035Z AUTO 31008KT 10SM CLR 20/11 A3019 RMK AO2
 
KSLE - Salem, Oregon, USA
Distance from station: NNW 14mi, 23km
Updated: Fri, 10-Jul-2020 4:56pm PDT
Clear
Clear
 Wind from varies
Wind: varies 3 mph , 6 km/h
Temperature: 79°F , 26°C
Dew Point: 52°F , 11°C
Humidity: 39%
Barometer: 30.10 inHg , 1019.3 hPa
Clouds: Clear
Visibility: 10 miles , 16 km
2020/07/10 23:56 KSLE 102356Z VRB03KT 10SM CLR 26/11 A3010 RMK AO2 SLP191 T02560111 10267 20200 58013
KEUG - Eugene, Oregon, USA
Distance from station: ENE 12mi, 19km
Updated: Fri, 10-Jul-2020 4:54pm PDT
Few Clouds
Few Clouds
 
Temperature: 82°F , 28°C
Dew Point: 54°F , 12°C
Humidity: 37%
Barometer: 30.11 inHg , 1019.6 hPa
Clouds: Few Clouds
Visibility: 10 miles , 16 km
Cloud details: Few Clouds 4000 ft
2020/07/10 23:54 KEUG 102354Z 10SM FEW040 28/12 A3011 RMK AO2 SLP193 T02830122 10283 20189 58014
 
KONP - Newport, Oregon, USA
Distance from station: NNW 31mi, 50km
Updated: Fri, 10-Jul-2020 5:35pm PDT
Clear
Clear
 Wind from N
Wind: N 14 mph , 22 km/h
Temperature: 64°F , 18°C
Dew Point: 52°F , 11°C
Humidity: 64%
Barometer: 30.20 inHg , 1022.7 hPa
Clouds: Clear
Visibility: 10 miles , 16 km
2020/07/11 00:35 KONP 110035Z AUTO 35012KT 10SM CLR 18/11 A3020 RMK AO2
K6S2 - Florence, Oregon, USA
Distance from station: NW 21mi, 34km
Updated: Fri, 10-Jul-2020 5:35pm PDT
Clear
Clear
 Wind from NW
Wind: NW 12 mph , 19 km/h, Gust: 16 mph , 26 km/h
Temperature: 66°F , 19°C
Dew Point: 52°F , 11°C
Humidity: 60%
Barometer: 30.16 inHg , 1021.3 hPa
Clouds: Clear
Visibility: 10 miles , 16 km
2020/07/11 00:35 K6S2 110035Z AUTO 32010G14KT 290V350 10SM CLR 19/11 A3016 RMK AO2 T01940108
 
KDLS - The Dalles, Oregon, USA
Distance from station: NW 30mi, 49km
Updated: Fri, 10-Jul-2020 4:53pm PDT
Clear
Clear
 Wind from NW
Wind: NW 14 mph , 22 km/h
Temperature: 88°F , 31°C
Dew Point: 52°F , 11°C
Humidity: 29%
Barometer: 30.03 inHg , 1016.9 hPa
Clouds: Clear
Visibility: 10 miles , 16 km
2020/07/10 23:53 KDLS 102353Z AUTO 31012KT 10SM CLR 31/11 A3003 RMK AO2 SLP167 T03060111 10311 20244 56017
KRDM - Redmond, Oregon, USA
Distance from station: ESE 27mi, 43km
Updated: Fri, 10-Jul-2020 4:56pm PDT
Clear
Clear
 Wind from N
Wind: N 10 mph , 17 km/h, Gust: 18 mph , 30 km/h
Temperature: 86°F , 30°C
Dew Point: 34°F , 1°C
Humidity: 15%
Barometer: 30.11 inHg , 1019.6 hPa
Clouds: Clear
Visibility: 10 miles , 16 km
2020/07/10 23:56 KRDM 102356Z 36009G16KT 10SM CLR 30/01 A3011 RMK AO2 SLP174 T03000011 10306 20222 58010
 
KPDT - Pendleton, Oregon, USA
Distance from station: SSE 27mi, 44km
Updated: Fri, 10-Jul-2020 4:53pm PDT
Clear
Clear
 Wind from varies
Wind: varies 6 mph , 9 km/h
Temperature: 84°F , 29°C
Dew Point: 43°F , 6°C
Humidity: 23%
Barometer: 30.08 inHg , 1018.6 hPa
Clouds: Clear
Visibility: 10 miles , 16 km
2020/07/10 23:53 KPDT 102353Z VRB05KT 10SM CLR 29/06 A3008 RMK AO2 SLP169 T02940056 10306 20233 58013
KGCD - John Day, Oregon, USA
Distance from station: WNW 31mi, 50km
Updated: Fri, 10-Jul-2020 5:35pm PDT
Clear
Clear
 Wind from N
Wind: N 3 mph , 6 km/h
Temperature: 84°F , 29°C
Dew Point: 41°F , 5°C
Humidity: 22%
Barometer: 30.14 inHg , 1020.7 hPa
Clouds: Clear
Visibility: 10 miles , 16 km
2020/07/11 00:35 KGCD 110035Z AUTO 35003KT 10SM CLR 29/05 A3014 RMK AO2 T02940047
 
KAST - Astoria, Oregon, USA
Distance from station: N 28mi, 44km
Updated: Fri, 10-Jul-2020 4:55pm PDT
Clear
Clear
 Wind from varies
Wind: varies 7 mph , 11 km/h
Temperature: 66°F , 19°C
Dew Point: 52°F , 11°C
Humidity: 60%
Barometer: 30.18 inHg , 1022 hPa
Clouds: Clear
Visibility: 10 miles , 16 km
2020/07/10 23:55 KAST 102355Z AUTO VRB06KT 10SM CLR 19/11 A3018 RMK AO2 SLP220 60000 T01940106 10200 20167 58006
KSEA - Seattle, Washington, USA
Distance from station: NNE 31mi, 51km
Updated: Fri, 10-Jul-2020 4:53pm PDT
Few Clouds
Few Clouds
 Wind from WSW
Wind: WSW 5 mph , 7 km/h
Temperature: 72°F , 22°C
Dew Point: 52°F , 11°C
Humidity: 50%
Barometer: 30.17 inHg , 1021.7 hPa
Clouds: Few Clouds
Visibility: 10 miles , 16 km
Cloud details: Few Clouds 3500 ft
Few Clouds 25000 ft
2020/07/10 23:53 KSEA 102353Z 25004KT 10SM FEW035 FEW250 22/11 A3017 RMK AO2 SLP221 T02220111 10228 20167 58013